Air Navigation Services of Czech Republic
Airport: LKLN Updated:  21.01.2019 04:55:07  UTC
 METAR LKLN 21.01. 05:00 ...
METAR LKLN 210500Z AUTO 05003KT 340V090 9999 OVC037 M02/M05 Q1020=